Brightway — 9V8755 — position and weather

sailwx.info

Track history (hours):
 
Tides and Currents Weather Stations Pressure Air Temp Water Temp Dewpoint Dewpoint Depression Visibility Wind Speed Wind Dir Waves Ship Positions

Brightway

Last reported at 2015-Jan-22 12:31 UTC. Time now 2015-Jan-29 04:24 UTC.
Position N 39°13' E 019°25'.

Length 274 m; draft 15.8 m.

Type: Tanker. MMSI: 566422000.

Date/timePositionNaut miles runAvg speedWind from/ knotsBaromVisibWave heightAir tempDewpointWater temp
2015-Jan-22 12:31N 39°13' E 019°25'255 7.2
2015-Jan-21 01:10N 37°60' E 024°37'4211.4
2015-Jan-20 21:27N 38°37' E 025°01'8711.0
2015-Jan-20 13:33N 39°54' E 025°52'5510.6
2015-Jan-20 08:19N 40°28' E 026°50'  
2015-Jan-16 12:23N 41°15' E 029°08'6 6.7
2015-Jan-16 11:34N 41°20' E 029°06'8 0.5
2015-Jan-15 18:15N 41°27' E 029°02'0 0.7
2015-Jan-15 17:34N 41°27' E 029°01'1 0.5
2015-Jan-15 15:04N 41°28' E 028°60'19 6.6
2015-Jan-15 12:10N 41°35' E 029°23'911.1
2015-Jan-15 11:21N 41°41' E 029°32'23811.5
2015-Jan-14 14:33N 43°30' E 034°20'1512.5
2015-Jan-14 13:19N 43°37' E 034°39'1514.4
2015-Jan-14 12:16N 43°43' E 034°58'3713.8
2015-Jan-14 09:33N 43°58' E 035°46'1311.7
2015-Jan-14 08:25N 44°03' E 036°03'2711.7
2015-Jan-14 06:08N 44°11' E 036°38'3212.2
2015-Jan-14 03:30N 44°25' E 037°19'1212.7
2015-Jan-14 02:33N 44°31' E 037°34'9 8.7
2015-Jan-14 01:33N 44°36' E 037°43'1 0.8
2015-Jan-14 00:33N 44°36' E 037°42'1 0.9
2015-Jan-13 23:33N 44°35' E 037°42'0 0.3
2015-Jan-13 22:33N 44°35' E 037°42'1 1.5
2015-Jan-13 21:33N 44°35' E 037°44'6 6.0
2015-Jan-13 20:33N 44°35' E 037°53'0 0.5
2015-Jan-13 19:33N 44°36' E 037°53'0 0.0
2015-Jan-13 18:33N 44°36' E 037°53'0 0.0
2015-Jan-13 17:33N 44°36' E 037°53'0 0.0
2015-Jan-13 16:33N 44°36' E 037°53'0 0.0
2015-Jan-13 15:33N 44°36' E 037°53'0 0.0
2015-Jan-13 14:33N 44°36' E 037°53'0 0.0
2015-Jan-13 13:30N 44°36' E 037°53'0 0.0
2015-Jan-13 12:33N 44°36' E 037°53'0 0.0
2015-Jan-13 11:33N 44°36' E 037°53'0 0.0
2015-Jan-13 10:33N 44°36' E 037°53'0 0.0
2015-Jan-13 09:33N 44°36' E 037°53'0 0.0
2015-Jan-13 08:33N 44°36' E 037°53'0 0.0
2015-Jan-13 07:33N 44°36' E 037°53'0 0.0
2015-Jan-13 06:33N 44°36' E 037°53'0 0.0
2015-Jan-13 05:33N 44°36' E 037°53'0 0.0
2015-Jan-13 04:33N 44°36' E 037°53'0 0.0
2015-Jan-13 03:33N 44°36' E 037°53'0 0.0
2015-Jan-13 02:33N 44°36' E 037°53'0 0.0
2015-Jan-13 01:33N 44°36' E 037°53'0 0.0
2015-Jan-13 00:33N 44°36' E 037°53'0 0.0
2015-Jan-12 23:33N 44°36' E 037°53'1 1.4
2015-Jan-12 22:33N 44°34' E 037°52'7 7.1
2015-Jan-12 21:33N 44°32' E 037°43'9 9.3
2015-Jan-12 20:33N 44°32' E 037°30'14 2.0
2015-Jan-12 13:16N 44°41' E 037°14'1 1.6
2015-Jan-12 12:32N 44°40' E 037°15'  
Track history (hours):
 
Tides and Currents Weather Stations Pressure Air Temp Water Temp Dewpoint Dewpoint Depression Visibility Wind Speed Wind Dir Waves Ship Positions

Brightway

Last reported at 2015-Jan-22 12:31 UTC. Time now 2015-Jan-29 04:24 UTC.
Position N 39°13' E 019°25'.

Length 274 m; draft 15.8 m.

Type: Tanker. MMSI: 566422000.

Date/timePositionNaut miles runAvg speedWind from/ knotsBaromVisibWave heightAir tempDewpointWater temp
2015-Jan-22 12:31N 39°13' E 019°25'255 7.2
2015-Jan-21 01:10N 37°60' E 024°37'4211.4
2015-Jan-20 21:27N 38°37' E 025°01'8711.0
2015-Jan-20 13:33N 39°54' E 025°52'5510.6
2015-Jan-20 08:19N 40°28' E 026°50'  
2015-Jan-16 12:23N 41°15' E 029°08'6 6.7
2015-Jan-16 11:34N 41°20' E 029°06'8 0.5
2015-Jan-15 18:15N 41°27' E 029°02'0 0.7
2015-Jan-15 17:34N 41°27' E 029°01'1 0.5
2015-Jan-15 15:04N 41°28' E 028°60'19 6.6
2015-Jan-15 12:10N 41°35' E 029°23'911.1
2015-Jan-15 11:21N 41°41' E 029°32'23811.5
2015-Jan-14 14:33N 43°30' E 034°20'1512.5
2015-Jan-14 13:19N 43°37' E 034°39'1514.4
2015-Jan-14 12:16N 43°43' E 034°58'3713.8
2015-Jan-14 09:33N 43°58' E 035°46'1311.7
2015-Jan-14 08:25N 44°03' E 036°03'2711.7
2015-Jan-14 06:08N 44°11' E 036°38'3212.2
2015-Jan-14 03:30N 44°25' E 037°19'1212.7
2015-Jan-14 02:33N 44°31' E 037°34'9 8.7
2015-Jan-14 01:33N 44°36' E 037°43'1 0.8
2015-Jan-14 00:33N 44°36' E 037°42'1 0.9
2015-Jan-13 23:33N 44°35' E 037°42'0 0.3
2015-Jan-13 22:33N 44°35' E 037°42'1 1.5
2015-Jan-13 21:33N 44°35' E 037°44'6 6.0
2015-Jan-13 20:33N 44°35' E 037°53'0 0.5
2015-Jan-13 19:33N 44°36' E 037°53'0 0.0
2015-Jan-13 18:33N 44°36' E 037°53'0 0.0
2015-Jan-13 17:33N 44°36' E 037°53'0 0.0
2015-Jan-13 16:33N 44°36' E 037°53'0 0.0
2015-Jan-13 15:33N 44°36' E 037°53'0 0.0
2015-Jan-13 14:33N 44°36' E 037°53'0 0.0
2015-Jan-13 13:30N 44°36' E 037°53'0 0.0
2015-Jan-13 12:33N 44°36' E 037°53'0 0.0
2015-Jan-13 11:33N 44°36' E 037°53'0 0.0
2015-Jan-13 10:33N 44°36' E 037°53'0 0.0
2015-Jan-13 09:33N 44°36' E 037°53'0 0.0
2015-Jan-13 08:33N 44°36' E 037°53'0 0.0
2015-Jan-13 07:33N 44°36' E 037°53'0 0.0
2015-Jan-13 06:33N 44°36' E 037°53'0 0.0
2015-Jan-13 05:33N 44°36' E 037°53'0 0.0
2015-Jan-13 04:33N 44°36' E 037°53'0 0.0
2015-Jan-13 03:33N 44°36' E 037°53'0 0.0
2015-Jan-13 02:33N 44°36' E 037°53'0 0.0
2015-Jan-13 01:33N 44°36' E 037°53'0 0.0
2015-Jan-13 00:33N 44°36' E 037°53'0 0.0
2015-Jan-12 23:33N 44°36' E 037°53'1 1.4
2015-Jan-12 22:33N 44°34' E 037°52'7 7.1
2015-Jan-12 21:33N 44°32' E 037°43'9 9.3
2015-Jan-12 20:33N 44°32' E 037°30'14 2.0
2015-Jan-12 13:16N 44°41' E 037°14'1 1.6
2015-Jan-12 12:32N 44°40' E 037°15'  

Dump ship's entire track history